sensor_id;sensor_type;location;lat;lon;timestamp;P1;durP1;ratioP1;P2;durP2;ratioP2
38693;SDS011;24447;43.460;25.744;2023-05-07T00:01:54;6.72;;;3.55;;
38693;SDS011;24447;43.460;25.744;2023-05-07T00:04:19;8.82;;;3.47;;
38693;SDS011;24447;43.460;25.744;2023-05-07T00:06:45;6.38;;;3.33;;
38693;SDS011;24447;43.460;25.744;2023-05-07T00:09:11;8.55;;;3.67;;
38693;SDS011;24447;43.460;25.744;2023-05-07T00:11:37;10.02;;;3.70;;
38693;SDS011;24447;43.460;25.744;2023-05-07T00:14:03;8.50;;;3.72;;
38693;SDS011;24447;43.460;25.744;2023-05-07T00:16:29;9.13;;;3.92;;
38693;SDS011;24447;43.460;25.744;2023-05-07T00:18:55;9.15;;;3.83;;
38693;SDS011;24447;43.460;25.744;2023-05-07T00:21:21;11.68;;;4.68;;
38693;SDS011;24447;43.460;25.744;2023-05-07T00:23:47;9.75;;;4.22;;
38693;SDS011;24447;43.460;25.744;2023-05-07T00:26:13;6.15;;;3.45;;
38693;SDS011;24447;43.460;25.744;2023-05-07T00:28:39;7.07;;;3.67;;
38693;SDS011;24447;43.460;25.744;2023-05-07T00:31:05;8.07;;;3.42;;
38693;SDS011;24447;43.460;25.744;2023-05-07T00:33:30;7.90;;;3.50;;
38693;SDS011;24447;43.460;25.744;2023-05-07T00:35:56;5.78;;;3.67;;
38693;SDS011;24447;43.460;25.744;2023-05-07T00:38:22;10.85;;;3.97;;
38693;SDS011;24447;43.460;25.744;2023-05-07T00:40:48;10.65;;;3.95;;
38693;SDS011;24447;43.460;25.744;2023-05-07T00:43:15;7.80;;;3.53;;
38693;SDS011;24447;43.460;25.744;2023-05-07T00:45:42;10.15;;;4.45;;
38693;SDS011;24447;43.460;25.744;2023-05-07T00:48:07;7.18;;;3.45;;
38693;SDS011;24447;43.460;25.744;2023-05-07T00:50:33;6.78;;;3.60;;
38693;SDS011;24447;43.460;25.744;2023-05-07T00:52:59;7.47;;;3.78;;
38693;SDS011;24447;43.460;25.744;2023-05-07T00:55:25;6.57;;;3.65;;
38693;SDS011;24447;43.460;25.744;2023-05-07T00:57:51;12.10;;;3.83;;
38693;SDS011;24447;43.460;25.744;2023-05-07T01:00:17;5.78;;;3.63;;
38693;SDS011;24447;43.460;25.744;2023-05-07T01:02:44;10.63;;;4.13;;
38693;SDS011;24447;43.460;25.744;2023-05-07T01:05:12;8.77;;;3.70;;
38693;SDS011;24447;43.460;25.744;2023-05-07T01:07:39;7.93;;;3.80;;
38693;SDS011;24447;43.460;25.744;2023-05-07T01:10:06;10.30;;;4.00;;
38693;SDS011;24447;43.460;25.744;2023-05-07T01:12:33;10.63;;;4.25;;
38693;SDS011;24447;43.460;25.744;2023-05-07T01:15:00;9.07;;;3.42;;
38693;SDS011;24447;43.460;25.744;2023-05-07T01:17:26;10.48;;;4.30;;
38693;SDS011;24447;43.460;25.744;2023-05-07T01:19:52;9.80;;;3.55;;
38693;SDS011;24447;43.460;25.744;2023-05-07T01:22:34;8.98;;;3.80;;
38693;SDS011;24447;43.460;25.744;2023-05-07T01:25:03;12.85;;;4.28;;
38693;SDS011;24447;43.460;25.744;2023-05-07T01:27:31;9.25;;;4.00;;
38693;SDS011;24447;43.460;25.744;2023-05-07T01:29:58;6.90;;;3.80;;
38693;SDS011;24447;43.460;25.744;2023-05-07T01:32:27;8.30;;;4.00;;
38693;SDS011;24447;43.460;25.744;2023-05-07T01:34:55;7.10;;;3.38;;
38693;SDS011;24447;43.460;25.744;2023-05-07T01:37:23;12.77;;;3.78;;
38693;SDS011;24447;43.460;25.744;2023-05-07T01:39:49;7.82;;;3.70;;
38693;SDS011;24447;43.460;25.744;2023-05-07T01:42:15;10.65;;;4.25;;
38693;SDS011;24447;43.460;25.744;2023-05-07T01:44:41;8.23;;;3.92;;
38693;SDS011;24447;43.460;25.744;2023-05-07T01:47:06;10.55;;;4.35;;
38693;SDS011;24447;43.460;25.744;2023-05-07T01:49:33;7.53;;;3.35;;
38693;SDS011;24447;43.460;25.744;2023-05-07T01:51:59;7.07;;;3.72;;
38693;SDS011;24447;43.460;25.744;2023-05-07T01:54:25;8.10;;;4.07;;
38693;SDS011;24447;43.460;25.744;2023-05-07T01:56:58;11.20;;;4.40;;
38693;SDS011;24447;43.460;25.744;2023-05-07T01:59:25;8.98;;;3.80;;
38693;SDS011;24447;43.460;25.744;2023-05-07T02:01:51;9.63;;;4.28;;
38693;SDS011;24447;43.460;25.744;2023-05-07T02:04:17;6.93;;;4.10;;
38693;SDS011;24447;43.460;25.744;2023-05-07T02:06:43;16.15;;;3.88;;
38693;SDS011;24447;43.460;25.744;2023-05-07T02:09:09;9.05;;;3.38;;
38693;SDS011;24447;43.460;25.744;2023-05-07T02:11:35;7.20;;;3.50;;
38693;SDS011;24447;43.460;25.744;2023-05-07T02:14:01;10.57;;;4.93;;
38693;SDS011;24447;43.460;25.744;2023-05-07T02:16:26;11.32;;;4.65;;
38693;SDS011;24447;43.460;25.744;2023-05-07T02:18:52;10.80;;;3.65;;
38693;SDS011;24447;43.460;25.744;2023-05-07T02:21:18;7.90;;;3.78;;
38693;SDS011;24447;43.460;25.744;2023-05-07T02:23:44;8.75;;;3.85;;
38693;SDS011;24447;43.460;25.744;2023-05-07T02:26:10;10.10;;;3.67;;
38693;SDS011;24447;43.460;25.744;2023-05-07T02:28:36;9.25;;;4.35;;
38693;SDS011;24447;43.460;25.744;2023-05-07T02:31:02;11.38;;;4.25;;
38693;SDS011;24447;43.460;25.744;2023-05-07T02:33:29;14.32;;;4.45;;
38693;SDS011;24447;43.460;25.744;2023-05-07T02:35:55;9.30;;;3.95;;
38693;SDS011;24447;43.460;25.744;2023-05-07T02:38:21;10.73;;;3.92;;
38693;SDS011;24447;43.460;25.744;2023-05-07T02:40:48;10.45;;;4.13;;
38693;SDS011;24447;43.460;25.744;2023-05-07T02:43:14;7.72;;;4.07;;
38693;SDS011;24447;43.460;25.744;2023-05-07T02:45:39;8.25;;;4.10;;
38693;SDS011;24447;43.460;25.744;2023-05-07T02:48:05;9.55;;;3.80;;
38693;SDS011;24447;43.460;25.744;2023-05-07T02:50:32;10.65;;;4.30;;
38693;SDS011;24447;43.460;25.744;2023-05-07T02:52:58;8.65;;;4.32;;
38693;SDS011;24447;43.460;25.744;2023-05-07T02:55:24;11.45;;;4.45;;
38693;SDS011;24447;43.460;25.744;2023-05-07T02:57:50;10.52;;;4.00;;
38693;SDS011;24447;43.460;25.744;2023-05-07T03:00:16;8.10;;;3.85;;
38693;SDS011;24447;43.460;25.744;2023-05-07T03:02:44;11.23;;;4.13;;
38693;SDS011;24447;43.460;25.744;2023-05-07T03:05:10;10.77;;;4.50;;
38693;SDS011;24447;43.460;25.744;2023-05-07T03:07:37;10.90;;;4.43;;
38693;SDS011;24447;43.460;25.744;2023-05-07T03:10:03;14.98;;;5.47;;
38693;SDS011;24447;43.460;25.744;2023-05-07T03:12:30;8.85;;;4.13;;
38693;SDS011;24447;43.460;25.744;2023-05-07T03:14:56;11.77;;;4.22;;
38693;SDS011;24447;43.460;25.744;2023-05-07T03:17:22;11.63;;;3.92;;
38693;SDS011;24447;43.460;25.744;2023-05-07T03:19:48;11.35;;;3.90;;
38693;SDS011;24447;43.460;25.744;2023-05-07T03:22:14;8.57;;;3.70;;
38693;SDS011;24447;43.460;25.744;2023-05-07T03:24:40;7.68;;;3.95;;
38693;SDS011;24447;43.460;25.744;2023-05-07T03:27:06;9.30;;;4.00;;
38693;SDS011;24447;43.460;25.744;2023-05-07T03:29:32;8.68;;;4.05;;
38693;SDS011;24447;43.460;25.744;2023-05-07T03:31:57;9.63;;;5.00;;
38693;SDS011;24447;43.460;25.744;2023-05-07T03:34:23;13.73;;;5.28;;
38693;SDS011;24447;43.460;25.744;2023-05-07T03:36:49;13.52;;;4.72;;
38693;SDS011;24447;43.460;25.744;2023-05-07T03:39:15;9.57;;;4.18;;
38693;SDS011;24447;43.460;25.744;2023-05-07T03:41:41;14.48;;;5.07;;
38693;SDS011;24447;43.460;25.744;2023-05-07T03:44:07;10.38;;;4.13;;
38693;SDS011;24447;43.460;25.744;2023-05-07T03:46:33;8.50;;;4.47;;
38693;SDS011;24447;43.460;25.744;2023-05-07T03:48:59;22.45;;;4.47;;
38693;SDS011;24447;43.460;25.744;2023-05-07T03:51:25;11.93;;;5.25;;
38693;SDS011;24447;43.460;25.744;2023-05-07T03:53:51;11.80;;;4.35;;
38693;SDS011;24447;43.460;25.744;2023-05-07T03:56:18;7.45;;;4.10;;
38693;SDS011;24447;43.460;25.744;2023-05-07T03:58:44;15.07;;;6.05;;
38693;SDS011;24447;43.460;25.744;2023-05-07T04:01:10;10.57;;;4.20;;
38693;SDS011;24447;43.460;25.744;2023-05-07T04:03:37;8.30;;;3.45;;
38693;SDS011;24447;43.460;25.744;2023-05-07T04:06:03;5.72;;;2.45;;
38693;SDS011;24447;43.460;25.744;2023-05-07T04:08:28;7.03;;;3.58;;
38693;SDS011;24447;43.460;25.744;2023-05-07T04:10:55;5.38;;;2.40;;
38693;SDS011;24447;43.460;25.744;2023-05-07T04:13:21;7.82;;;2.90;;
38693;SDS011;24447;43.460;25.744;2023-05-07T04:15:47;5.50;;;3.25;;
38693;SDS011;24447;43.460;25.744;2023-05-07T04:18:14;7.30;;;3.70;;
38693;SDS011;24447;43.460;25.744;2023-05-07T04:20:40;6.53;;;3.53;;
38693;SDS011;24447;43.460;25.744;2023-05-07T04:23:07;11.10;;;3.00;;
38693;SDS011;24447;43.460;25.744;2023-05-07T04:25:33;6.20;;;2.85;;
38693;SDS011;24447;43.460;25.744;2023-05-07T04:27:59;7.40;;;3.20;;
38693;SDS011;24447;43.460;25.744;2023-05-07T04:30:25;5.47;;;3.05;;
38693;SDS011;24447;43.460;25.744;2023-05-07T04:32:51;6.32;;;2.67;;
38693;SDS011;24447;43.460;25.744;2023-05-07T04:35:21;7.75;;;3.10;;
38693;SDS011;24447;43.460;25.744;2023-05-07T04:37:47;8.23;;;3.03;;
38693;SDS011;24447;43.460;25.744;2023-05-07T04:40:13;3.13;;;2.70;;
38693;SDS011;24447;43.460;25.744;2023-05-07T04:42:39;4.85;;;2.65;;
38693;SDS011;24447;43.460;25.744;2023-05-07T04:45:05;8.15;;;3.28;;
38693;SDS011;24447;43.460;25.744;2023-05-07T04:47:31;7.25;;;3.65;;
38693;SDS011;24447;43.460;25.744;2023-05-07T04:49:57;8.02;;;3.03;;
38693;SDS011;24447;43.460;25.744;2023-05-07T04:52:23;4.95;;;2.65;;
38693;SDS011;24447;43.460;25.744;2023-05-07T04:54:49;4.30;;;2.63;;
38693;SDS011;24447;43.460;25.744;2023-05-07T04:57:15;5.05;;;2.60;;
38693;SDS011;24447;43.460;25.744;2023-05-07T04:59:42;5.70;;;2.97;;
38693;SDS011;24447;43.460;25.744;2023-05-07T05:02:10;6.07;;;3.47;;
38693;SDS011;24447;43.460;25.744;2023-05-07T05:04:36;4.18;;;2.83;;
38693;SDS011;24447;43.460;25.744;2023-05-07T05:07:02;6.90;;;3.20;;
38693;SDS011;24447;43.460;25.744;2023-05-07T05:09:29;3.88;;;2.58;;
38693;SDS011;24447;43.460;25.744;2023-05-07T05:11:55;5.45;;;3.22;;
38693;SDS011;24447;43.460;25.744;2023-05-07T05:14:21;5.97;;;3.17;;
38693;SDS011;24447;43.460;25.744;2023-05-07T05:16:47;4.47;;;2.63;;
38693;SDS011;24447;43.460;25.744;2023-05-07T05:19:13;4.32;;;2.47;;
38693;SDS011;24447;43.460;25.744;2023-05-07T05:21:40;7.95;;;2.50;;
38693;SDS011;24447;43.460;25.744;2023-05-07T05:24:05;6.68;;;2.60;;
38693;SDS011;24447;43.460;25.744;2023-05-07T05:26:32;3.78;;;2.88;;
38693;SDS011;24447;43.460;25.744;2023-05-07T05:28:57;8.98;;;3.55;;
38693;SDS011;24447;43.460;25.744;2023-05-07T05:31:23;5.93;;;3.40;;
38693;SDS011;24447;43.460;25.744;2023-05-07T05:33:49;6.47;;;2.97;;
38693;SDS011;24447;43.460;25.744;2023-05-07T05:36:15;4.65;;;2.50;;
38693;SDS011;24447;43.460;25.744;2023-05-07T05:38:42;4.63;;;2.95;;
38693;SDS011;24447;43.460;25.744;2023-05-07T05:41:07;5.43;;;2.65;;
38693;SDS011;24447;43.460;25.744;2023-05-07T05:43:33;6.13;;;3.17;;
38693;SDS011;24447;43.460;25.744;2023-05-07T05:45:59;7.20;;;3.40;;
38693;SDS011;24447;43.460;25.744;2023-05-07T05:48:25;8.55;;;3.53;;
38693;SDS011;24447;43.460;25.744;2023-05-07T05:50:51;6.63;;;3.40;;
38693;SDS011;24447;43.460;25.744;2023-05-07T05:53:17;6.47;;;3.15;;
38693;SDS011;24447;43.460;25.744;2023-05-07T05:55:43;5.70;;;3.60;;
38693;SDS011;24447;43.460;25.744;2023-05-07T05:58:09;6.18;;;2.88;;
38693;SDS011;24447;43.460;25.744;2023-05-07T06:00:35;4.07;;;2.40;;
38693;SDS011;24447;43.460;25.744;2023-05-07T06:03:01;5.03;;;2.58;;
38693;SDS011;24447;43.460;25.744;2023-05-07T06:05:27;4.30;;;2.58;;
38693;SDS011;24447;43.460;25.744;2023-05-07T06:07:53;6.22;;;2.90;;
38693;SDS011;24447;43.460;25.744;2023-05-07T06:10:19;4.53;;;2.60;;
38693;SDS011;24447;43.460;25.744;2023-05-07T06:12:44;7.05;;;3.33;;
38693;SDS011;24447;43.460;25.744;2023-05-07T06:15:10;4.35;;;2.30;;
38693;SDS011;24447;43.460;25.744;2023-05-07T06:17:36;7.30;;;2.95;;
38693;SDS011;24447;43.460;25.744;2023-05-07T06:20:02;3.22;;;2.60;;
38693;SDS011;24447;43.460;25.744;2023-05-07T06:22:28;2.33;;;1.75;;
38693;SDS011;24447;43.460;25.744;2023-05-07T06:24:54;3.42;;;2.35;;
38693;SDS011;24447;43.460;25.744;2023-05-07T06:27:24;2.33;;;1.50;;
38693;SDS011;24447;43.460;25.744;2023-05-07T06:29:58;3.05;;;1.73;;
38693;SDS011;24447;43.460;25.744;2023-05-07T06:32:25;2.70;;;1.77;;
38693;SDS011;24447;43.460;25.744;2023-05-07T06:34:51;4.32;;;1.42;;
38693;SDS011;24447;43.460;25.744;2023-05-07T06:37:17;3.97;;;1.92;;
38693;SDS011;24447;43.460;25.744;2023-05-07T06:39:43;3.20;;;1.65;;
38693;SDS011;24447;43.460;25.744;2023-05-07T06:42:08;4.20;;;2.00;;
38693;SDS011;24447;43.460;25.744;2023-05-07T06:44:34;6.28;;;1.90;;
38693;SDS011;24447;43.460;25.744;2023-05-07T06:47:00;4.03;;;1.83;;
38693;SDS011;24447;43.460;25.744;2023-05-07T06:49:26;2.72;;;1.83;;
38693;SDS011;24447;43.460;25.744;2023-05-07T06:51:52;2.33;;;1.50;;
38693;SDS011;24447;43.460;25.744;2023-05-07T06:54:18;3.60;;;1.92;;
38693;SDS011;24447;43.460;25.744;2023-05-07T06:56:45;4.45;;;1.75;;
38693;SDS011;24447;43.460;25.744;2023-05-07T06:59:11;3.35;;;2.05;;
38693;SDS011;24447;43.460;25.744;2023-05-07T07:01:37;5.85;;;2.15;;
38693;SDS011;24447;43.460;25.744;2023-05-07T07:04:02;2.97;;;1.70;;
38693;SDS011;24447;43.460;25.744;2023-05-07T07:06:28;3.08;;;1.83;;
38693;SDS011;24447;43.460;25.744;2023-05-07T07:08:56;7.45;;;1.92;;
38693;SDS011;24447;43.460;25.744;2023-05-07T07:11:23;2.95;;;1.50;;
38693;SDS011;24447;43.460;25.744;2023-05-07T07:13:48;6.35;;;1.90;;
38693;SDS011;24447;43.460;25.744;2023-05-07T07:16:15;3.33;;;1.45;;
38693;SDS011;24447;43.460;25.744;2023-05-07T07:18:41;2.22;;;2.03;;
38693;SDS011;24447;43.460;25.744;2023-05-07T07:21:07;5.93;;;3.35;;
38693;SDS011;24447;43.460;25.744;2023-05-07T07:23:33;4.30;;;2.42;;
38693;SDS011;24447;43.460;25.744;2023-05-07T07:25:59;5.78;;;1.58;;
38693;SDS011;24447;43.460;25.744;2023-05-07T07:28:25;1.92;;;1.70;;
38693;SDS011;24447;43.460;25.744;2023-05-07T07:30:51;3.30;;;1.85;;
38693;SDS011;24447;43.460;25.744;2023-05-07T07:33:17;6.20;;;2.00;;
38693;SDS011;24447;43.460;25.744;2023-05-07T07:35:43;8.68;;;3.03;;
38693;SDS011;24447;43.460;25.744;2023-05-07T07:38:09;2.40;;;1.85;;
38693;SDS011;24447;43.460;25.744;2023-05-07T07:40:35;1.63;;;1.45;;
38693;SDS011;24447;43.460;25.744;2023-05-07T07:43:01;2.15;;;1.73;;
38693;SDS011;24447;43.460;25.744;2023-05-07T07:45:27;2.75;;;1.70;;
38693;SDS011;24447;43.460;25.744;2023-05-07T07:47:54;6.40;;;1.98;;
38693;SDS011;24447;43.460;25.744;2023-05-07T07:50:20;1.88;;;1.55;;
38693;SDS011;24447;43.460;25.744;2023-05-07T07:52:46;4.18;;;1.63;;
38693;SDS011;24447;43.460;25.744;2023-05-07T07:55:13;7.43;;;2.40;;
38693;SDS011;24447;43.460;25.744;2023-05-07T07:57:43;2.92;;;1.80;;
38693;SDS011;24447;43.460;25.744;2023-05-07T08:00:09;3.92;;;1.90;;
38693;SDS011;24447;43.460;25.744;2023-05-07T08:02:35;5.70;;;2.25;;
38693;SDS011;24447;43.460;25.744;2023-05-07T08:05:01;5.85;;;1.60;;
38693;SDS011;24447;43.460;25.744;2023-05-07T08:07:29;3.13;;;1.95;;
38693;SDS011;24447;43.460;25.744;2023-05-07T08:09:55;1.88;;;1.30;;
38693;SDS011;24447;43.460;25.744;2023-05-07T08:12:21;1.38;;;1.25;;
38693;SDS011;24447;43.460;25.744;2023-05-07T08:14:47;3.72;;;1.35;;
38693;SDS011;24447;43.460;25.744;2023-05-07T08:17:13;3.55;;;1.95;;
38693;SDS011;24447;43.460;25.744;2023-05-07T08:19:41;2.88;;;1.73;;
38693;SDS011;24447;43.460;25.744;2023-05-07T08:22:07;3.60;;;2.10;;
38693;SDS011;24447;43.460;25.744;2023-05-07T08:24:33;4.15;;;2.00;;
38693;SDS011;24447;43.460;25.744;2023-05-07T08:26:59;5.90;;;2.05;;
38693;SDS011;24447;43.460;25.744;2023-05-07T08:29:25;2.05;;;1.80;;
38693;SDS011;24447;43.460;25.744;2023-05-07T08:31:51;2.90;;;1.92;;
38693;SDS011;24447;43.460;25.744;2023-05-07T08:34:17;3.25;;;1.63;;
38693;SDS011;24447;43.460;25.744;2023-05-07T08:36:42;4.10;;;2.03;;
38693;SDS011;24447;43.460;25.744;2023-05-07T08:39:12;4.22;;;1.60;;
38693;SDS011;24447;43.460;25.744;2023-05-07T08:41:38;3.85;;;1.83;;
38693;SDS011;24447;43.460;25.744;2023-05-07T08:44:04;12.30;;;2.72;;
38693;SDS011;24447;43.460;25.744;2023-05-07T08:46:32;4.40;;;1.45;;
38693;SDS011;24447;43.460;25.744;2023-05-07T08:48:57;9.95;;;2.25;;
38693;SDS011;24447;43.460;25.744;2023-05-07T08:51:23;6.47;;;1.55;;
38693;SDS011;24447;43.460;25.744;2023-05-07T08:53:49;1.83;;;1.40;;
38693;SDS011;24447;43.460;25.744;2023-05-07T08:56:16;3.97;;;1.58;;
38693;SDS011;24447;43.460;25.744;2023-05-07T08:58:43;4.18;;;1.60;;
38693;SDS011;24447;43.460;25.744;2023-05-07T09:01:13;4.13;;;1.42;;
38693;SDS011;24447;43.460;25.744;2023-05-07T09:03:40;2.35;;;1.85;;
38693;SDS011;24447;43.460;25.744;2023-05-07T09:06:06;1.40;;;1.30;;
38693;SDS011;24447;43.460;25.744;2023-05-07T09:08:32;1.73;;;1.33;;
38693;SDS011;24447;43.460;25.744;2023-05-07T09:10:59;6.78;;;1.67;;
38693;SDS011;24447;43.460;25.744;2023-05-07T09:13:25;3.75;;;1.85;;
38693;SDS011;24447;43.460;25.744;2023-05-07T09:15:52;4.10;;;2.10;;
38693;SDS011;24447;43.460;25.744;2023-05-07T09:18:18;2.42;;;1.67;;
38693;SDS011;24447;43.460;25.744;2023-05-07T09:20:44;3.17;;;2.03;;
38693;SDS011;24447;43.460;25.744;2023-05-07T09:23:10;4.40;;;2.03;;
38693;SDS011;24447;43.460;25.744;2023-05-07T09:25:36;1.17;;;0.90;;
38693;SDS011;24447;43.460;25.744;2023-05-07T09:28:03;8.20;;;1.73;;
38693;SDS011;24447;43.460;25.744;2023-05-07T09:30:31;2.72;;;1.55;;
38693;SDS011;24447;43.460;25.744;2023-05-07T09:32:58;2.38;;;1.80;;
38693;SDS011;24447;43.460;25.744;2023-05-07T09:35:25;5.38;;;2.30;;
38693;SDS011;24447;43.460;25.744;2023-05-07T09:40:28;5.30;;;2.05;;
38693;SDS011;24447;43.460;25.744;2023-05-07T09:42:55;4.47;;;2.03;;
38693;SDS011;24447;43.460;25.744;2023-05-07T09:45:23;1.88;;;1.58;;
38693;SDS011;24447;43.460;25.744;2023-05-07T09:47:53;2.28;;;1.80;;
38693;SDS011;24447;43.460;25.744;2023-05-07T09:50:28;1.90;;;1.48;;
38693;SDS011;24447;43.460;25.744;2023-05-07T09:52:55;2.15;;;1.38;;
38693;SDS011;24447;43.460;25.744;2023-05-07T09:55:22;2.60;;;1.65;;
38693;SDS011;24447;43.460;25.744;2023-05-07T09:57:52;1.38;;;1.13;;
38693;SDS011;24447;43.460;25.744;2023-05-07T10:00:19;2.45;;;1.63;;
38693;SDS011;24447;43.460;25.744;2023-05-07T10:02:50;5.60;;;2.20;;
38693;SDS011;24447;43.460;25.744;2023-05-07T10:05:21;8.65;;;1.80;;
38693;SDS011;24447;43.460;25.744;2023-05-07T10:07:50;3.80;;;1.85;;
38693;SDS011;24447;43.460;25.744;2023-05-07T10:10:16;2.58;;;1.50;;
38693;SDS011;24447;43.460;25.744;2023-05-07T10:12:43;3.72;;;1.27;;
38693;SDS011;24447;43.460;25.744;2023-05-07T10:15:09;2.67;;;1.45;;
38693;SDS011;24447;43.460;25.744;2023-05-07T10:17:36;2.53;;;1.73;;
38693;SDS011;24447;43.460;25.744;2023-05-07T10:20:03;2.92;;;2.20;;
38693;SDS011;24447;43.460;25.744;2023-05-07T10:22:37;2.25;;;1.55;;
38693;SDS011;24447;43.460;25.744;2023-05-07T10:25:06;1.85;;;1.33;;
38693;SDS011;24447;43.460;25.744;2023-05-07T10:27:52;1.17;;;1.08;;
38693;SDS011;24447;43.460;25.744;2023-05-07T10:30:38;6.43;;;2.13;;
38693;SDS011;24447;43.460;25.744;2023-05-07T10:33:06;2.22;;;1.40;;
38693;SDS011;24447;43.460;25.744;2023-05-07T10:35:38;2.33;;;1.63;;
38693;SDS011;24447;43.460;25.744;2023-05-07T10:38:06;4.53;;;1.63;;
38693;SDS011;24447;43.460;25.744;2023-05-07T10:40:32;2.85;;;1.60;;
38693;SDS011;24447;43.460;25.744;2023-05-07T10:42:59;4.03;;;1.40;;
38693;SDS011;24447;43.460;25.744;2023-05-07T10:45:26;4.35;;;1.85;;
38693;SDS011;24447;43.460;25.744;2023-05-07T10:50:32;4.38;;;1.30;;
38693;SDS011;24447;43.460;25.744;2023-05-07T10:55:42;3.97;;;1.48;;
38693;SDS011;24447;43.460;25.744;2023-05-07T11:00:48;2.95;;;1.42;;
38693;SDS011;24447;43.460;25.744;2023-05-07T11:03:14;3.55;;;1.67;;
38693;SDS011;24447;43.460;25.744;2023-05-07T11:05:41;6.63;;;1.70;;
38693;SDS011;24447;43.460;25.744;2023-05-07T11:08:07;2.42;;;1.52;;
38693;SDS011;24447;43.460;25.744;2023-05-07T11:16:21;3.38;;;1.77;;
38693;SDS011;24447;43.460;25.744;2023-05-07T11:18:53;3.33;;;1.90;;
38693;SDS011;24447;43.460;25.744;2023-05-07T11:21:39;5.60;;;1.45;;
38693;SDS011;24447;43.460;25.744;2023-05-07T11:24:09;1.48;;;1.30;;
38693;SDS011;24447;43.460;25.744;2023-05-07T11:26:42;1.80;;;1.30;;
38693;SDS011;24447;43.460;25.744;2023-05-07T11:29:13;5.93;;;1.85;;
38693;SDS011;24447;43.460;25.744;2023-05-07T11:31:43;2.03;;;1.50;;
38693;SDS011;24447;43.460;25.744;2023-05-07T11:34:09;4.50;;;1.70;;
38693;SDS011;24447;43.460;25.744;2023-05-07T11:36:40;4.03;;;1.50;;
38693;SDS011;24447;43.460;25.744;2023-05-07T11:41:58;5.25;;;1.80;;
38693;SDS011;24447;43.460;25.744;2023-05-07T11:44:45;3.45;;;1.55;;
38693;SDS011;24447;43.460;25.744;2023-05-07T11:47:16;6.90;;;1.60;;
38693;SDS011;24447;43.460;25.744;2023-05-07T11:49:43;5.97;;;1.40;;
38693;SDS011;24447;43.460;25.744;2023-05-07T11:52:10;2.55;;;1.58;;
38693;SDS011;24447;43.460;25.744;2023-05-07T11:54:38;2.65;;;1.40;;
38693;SDS011;24447;43.460;25.744;2023-05-07T11:57:04;1.95;;;1.60;;
38693;SDS011;24447;43.460;25.744;2023-05-07T11:59:37;1.65;;;1.27;;
38693;SDS011;24447;43.460;25.744;2023-05-07T12:02:05;3.92;;;1.58;;
38693;SDS011;24447;43.460;25.744;2023-05-07T12:04:32;2.70;;;1.55;;
38693;SDS011;24447;43.460;25.744;2023-05-07T12:06:57;2.58;;;2.15;;
38693;SDS011;24447;43.460;25.744;2023-05-07T12:09:23;5.47;;;2.20;;
38693;SDS011;24447;43.460;25.744;2023-05-07T12:11:49;5.32;;;1.75;;
38693;SDS011;24447;43.460;25.744;2023-05-07T12:14:17;4.80;;;2.08;;
38693;SDS011;24447;43.460;25.744;2023-05-07T12:16:43;2.75;;;1.52;;
38693;SDS011;24447;43.460;25.744;2023-05-07T12:19:10;5.20;;;1.60;;
38693;SDS011;24447;43.460;25.744;2023-05-07T12:21:40;4.63;;;1.63;;
38693;SDS011;24447;43.460;25.744;2023-05-07T12:24:06;2.75;;;1.77;;
38693;SDS011;24447;43.460;25.744;2023-05-07T12:26:37;1.75;;;1.45;;
38693;SDS011;24447;43.460;25.744;2023-05-07T12:31:29;4.15;;;1.50;;
38693;SDS011;24447;43.460;25.744;2023-05-07T12:33:55;4.10;;;1.77;;
38693;SDS011;24447;43.460;25.744;2023-05-07T12:36:21;1.63;;;1.48;;
38693;SDS011;24447;43.460;25.744;2023-05-07T12:38:49;2.58;;;1.77;;
38693;SDS011;24447;43.460;25.744;2023-05-07T12:41:15;2.10;;;1.80;;
38693;SDS011;24447;43.460;25.744;2023-05-07T12:43:44;3.70;;;2.10;;
38693;SDS011;24447;43.460;25.744;2023-05-07T12:46:11;2.17;;;1.80;;
38693;SDS011;24447;43.460;25.744;2023-05-07T12:48:43;2.60;;;1.67;;
38693;SDS011;24447;43.460;25.744;2023-05-07T12:51:11;3.45;;;1.27;;
38693;SDS011;24447;43.460;25.744;2023-05-07T12:53:41;5.30;;;2.13;;
38693;SDS011;24447;43.460;25.744;2023-05-07T12:56:08;2.50;;;1.83;;
38693;SDS011;24447;43.460;25.744;2023-05-07T12:58:35;5.20;;;1.65;;
38693;SDS011;24447;43.460;25.744;2023-05-07T13:01:04;3.70;;;2.20;;
38693;SDS011;24447;43.460;25.744;2023-05-07T13:03:31;2.03;;;1.33;;
38693;SDS011;24447;43.460;25.744;2023-05-07T13:05:59;1.98;;;1.73;;
38693;SDS011;24447;43.460;25.744;2023-05-07T13:08:36;4.40;;;1.85;;
38693;SDS011;24447;43.460;25.744;2023-05-07T13:11:06;2.60;;;1.90;;
38693;SDS011;24447;43.460;25.744;2023-05-07T13:13:34;1.92;;;1.48;;
38693;SDS011;24447;43.460;25.744;2023-05-07T13:16:00;3.15;;;1.73;;
38693;SDS011;24447;43.460;25.744;2023-05-07T13:18:29;2.72;;;1.65;;
38693;SDS011;24447;43.460;25.744;2023-05-07T13:20:55;3.75;;;1.70;;
38693;SDS011;24447;43.460;25.744;2023-05-07T13:23:21;5.45;;;2.63;;
38693;SDS011;24447;43.460;25.744;2023-05-07T13:25:47;5.43;;;1.92;;
38693;SDS011;24447;43.460;25.744;2023-05-07T13:28:14;4.68;;;1.92;;
38693;SDS011;24447;43.460;25.744;2023-05-07T13:30:40;3.22;;;1.88;;
38693;SDS011;24447;43.460;25.744;2023-05-07T13:33:06;4.35;;;1.92;;
38693;SDS011;24447;43.460;25.744;2023-05-07T13:35:33;4.40;;;1.60;;
38693;SDS011;24447;43.460;25.744;2023-05-07T13:37:59;7.63;;;2.10;;
38693;SDS011;24447;43.460;25.744;2023-05-07T13:40:25;4.53;;;2.08;;
38693;SDS011;24447;43.460;25.744;2023-05-07T13:42:51;4.88;;;2.08;;
38693;SDS011;24447;43.460;25.744;2023-05-07T13:45:20;2.78;;;1.52;;
38693;SDS011;24447;43.460;25.744;2023-05-07T13:47:46;3.75;;;2.05;;
38693;SDS011;24447;43.460;25.744;2023-05-07T13:50:13;5.38;;;1.60;;
38693;SDS011;24447;43.460;25.744;2023-05-07T13:52:40;5.15;;;2.13;;
38693;SDS011;24447;43.460;25.744;2023-05-07T13:55:08;3.55;;;2.15;;
38693;SDS011;24447;43.460;25.744;2023-05-07T13:57:38;1.98;;;1.67;;
38693;SDS011;24447;43.460;25.744;2023-05-07T14:00:04;3.10;;;2.03;;
38693;SDS011;24447;43.460;25.744;2023-05-07T14:02:31;3.13;;;1.90;;
38693;SDS011;24447;43.460;25.744;2023-05-07T14:04:57;2.80;;;2.00;;
38693;SDS011;24447;43.460;25.744;2023-05-07T14:07:23;2.00;;;1.75;;
38693;SDS011;24447;43.460;25.744;2023-05-07T14:09:49;4.95;;;2.53;;
38693;SDS011;24447;43.460;25.744;2023-05-07T14:12:14;7.30;;;1.83;;
38693;SDS011;24447;43.460;25.744;2023-05-07T14:14:40;4.07;;;2.35;;
38693;SDS011;24447;43.460;25.744;2023-05-07T14:17:06;2.50;;;1.60;;
38693;SDS011;24447;43.460;25.744;2023-05-07T14:19:33;4.45;;;2.25;;
38693;SDS011;24447;43.460;25.744;2023-05-07T14:21:59;2.58;;;1.70;;
38693;SDS011;24447;43.460;25.744;2023-05-07T14:24:25;3.05;;;1.65;;
38693;SDS011;24447;43.460;25.744;2023-05-07T14:26:51;2.75;;;1.67;;
38693;SDS011;24447;43.460;25.744;2023-05-07T14:29:17;8.57;;;1.88;;
38693;SDS011;24447;43.460;25.744;2023-05-07T14:31:46;1.90;;;1.75;;
38693;SDS011;24447;43.460;25.744;2023-05-07T14:34:12;3.47;;;1.95;;
38693;SDS011;24447;43.460;25.744;2023-05-07T14:36:38;6.72;;;2.33;;
38693;SDS011;24447;43.460;25.744;2023-05-07T14:39:03;1.50;;;1.40;;
38693;SDS011;24447;43.460;25.744;2023-05-07T14:41:29;4.18;;;2.28;;
38693;SDS011;24447;43.460;25.744;2023-05-07T14:43:56;3.60;;;1.90;;
38693;SDS011;24447;43.460;25.744;2023-05-07T14:46:23;4.43;;;2.20;;
38693;SDS011;24447;43.460;25.744;2023-05-07T14:48:50;3.28;;;1.90;;
38693;SDS011;24447;43.460;25.744;2023-05-07T14:51:16;6.28;;;1.60;;
38693;SDS011;24447;43.460;25.744;2023-05-07T14:53:42;2.17;;;1.95;;